Time;durP1;ratioP1;P1;durP2;ratioP2;P2;SDS_P1;SDS_P2;PMS_P1;PMS_P2;Temp;Humidity;BMP_temperature;BMP_pressure;BME280_temperature;BME280_humidity;BME280_pressure;Samples;Min_cycle;Max_cycle;Signal;HPM_P1;HPM_P2
2021/04/23 00:00:38;;;;;;;2.50;1.80;;;;;;;14.64;48.81;99158.22;6217590;23;20058;-85
2021/04/23 00:03:27;;;;;;;2.20;1.85;;;;;;;14.64;48.54;99160.91;6243443;23;20434;-90
2021/04/23 00:06:13;;;;;;;2.22;2.03;;;;;;;14.66;48.41;99155.25;6243268;23;20000;-89
2021/04/23 00:08:41;;;;;;;2.63;1.55;;;;;;;14.67;48.04;99152.28;6244067;23;20507;-88
2021/04/23 00:11:07;;;;;;;2.60;2.03;;;;;;;14.68;47.65;99153.06;6243300;23;20007;-84
2021/04/23 00:13:34;;;;;;;1.70;1.60;;;;;;;14.70;47.93;99148.19;6217424;23;20000;-88
2021/04/23 00:16:01;;;;;;;3.45;1.85;;;;;;;14.70;47.37;99142.81;6243411;23;19996;-88
2021/04/23 00:18:26;;;;;;;3.63;2.00;;;;;;;14.70;47.19;99129.34;6243086;23;20008;-87
2021/04/23 00:20:52;;;;;;;2.67;2.00;;;;;;;14.67;47.53;99130.75;6242771;23;20011;-88
2021/04/23 00:23:18;;;;;;;5.18;2.05;;;;;;;14.63;47.43;99129.72;6218184;23;20027;-87
2021/04/23 00:25:44;;;;;;;3.53;2.22;;;;;;;14.64;47.54;99133.22;6242858;23;20568;-88
2021/04/23 00:28:13;;;;;;;2.00;1.90;;;;;;;14.64;47.57;99136.69;6220114;23;20012;-93
2021/04/23 00:30:42;;;;;;;2.70;1.83;;;;;;;14.64;47.37;99138.59;6248642;23;20062;-93
2021/04/23 00:33:09;;;;;;;2.70;2.05;;;;;;;14.65;47.44;99148.28;6221724;23;20000;-91
2021/04/23 00:35:37;;;;;;;1.63;1.52;;;;;;;14.65;47.12;99143.69;6246138;23;19992;-84
2021/04/23 00:38:05;;;;;;;3.97;2.10;;;;;;;14.65;47.09;99149.09;6217705;23;20038;-89
2021/04/23 00:40:35;;;;;;;2.55;2.05;;;;;;;14.67;47.45;99141.53;6218307;23;20075;-88
2021/04/23 00:43:01;;;;;;;2.83;1.83;;;;;;;14.65;47.39;99132.13;6243300;23;20369;-84
2021/04/23 00:45:30;;;;;;;2.45;1.90;;;;;;;14.65;47.34;99135.63;6217984;23;20341;-83
2021/04/23 00:48:00;;;;;;;1.83;1.73;;;;;;;14.65;47.48;99134.81;6218888;23;20008;-90
2021/04/23 00:50:31;;;;;;;2.72;1.88;;;;;;;14.62;47.62;99133.50;6217664;23;20087;-86
2021/04/23 00:52:57;;;;;;;3.97;2.15;;;;;;;14.62;47.44;99138.88;6242887;23;20004;-89
2021/04/23 00:55:23;;;;;;;2.40;2.00;;;;;;;14.59;47.79;99136.81;6244224;23;20004;-88
2021/04/23 00:57:49;;;;;;;2.67;2.15;;;;;;;14.59;47.83;99142.19;6217211;23;20425;-85
2021/04/23 01:00:15;;;;;;;2.00;1.48;;;;;;;14.57;47.48;99141.69;6243046;23;20040;-80
2021/04/23 01:02:40;;;;;;;2.08;1.80;;;;;;;14.55;47.51;99147.38;6217253;23;20003;-81
2021/04/23 01:05:06;;;;;;;4.25;2.03;;;;;;;14.54;47.55;99142.28;6217615;23;20008;-81
2021/04/23 01:07:32;;;;;;;3.20;2.85;;;;;;;14.51;47.42;99138.31;6242984;23;20011;-83
2021/04/23 01:09:58;;;;;;;1.77;1.55;;;;;;;14.50;47.40;99144.78;6217438;23;20085;-84
2021/04/23 01:12:23;;;;;;;2.08;1.77;;;;;;;14.49;47.72;99150.44;6242776;23;20373;-81
2021/04/23 01:14:49;;;;;;;2.42;1.80;;;;;;;14.46;47.88;99151.84;6217453;23;20007;-80
2021/04/23 01:17:14;;;;;;;2.53;1.77;;;;;;;14.43;47.87;99147.06;6217133;23;20008;-83
2021/04/23 01:19:40;;;;;;;3.45;1.70;;;;;;;14.43;47.33;99140.88;6217143;23;20146;-82
2021/04/23 01:22:05;;;;;;;2.22;1.85;;;;;;;14.44;47.38;99147.84;6217016;23;20138;-83
2021/04/23 01:24:31;;;;;;;2.70;1.92;;;;;;;14.43;47.30;99147.06;6217528;23;20073;-82
2021/04/23 01:26:57;;;;;;;2.70;2.20;;;;;;;14.44;47.16;99142.47;6217113;23;20050;-80
2021/04/23 01:29:25;;;;;;;1.85;1.60;;;;;;;14.43;47.15;99155.16;6242405;23;20448;-80
2021/04/23 01:31:54;;;;;;;2.78;2.08;;;;;;;14.45;47.16;99154.84;6217074;23;20421;-81
2021/04/23 01:34:33;;;;;;;2.08;1.88;;;;;;;14.42;47.64;99150.84;6242694;23;20000;-84
2021/04/23 01:37:00;;;;;;;2.00;1.73;;;;;;;14.43;47.77;99148.94;6217130;23;20039;-83
2021/04/23 01:39:28;;;;;;;2.75;2.45;;;;;;;14.36;48.02;99144.75;6242571;23;20004;-82
2021/04/23 01:41:55;;;;;;;5.35;2.70;;;;;;;14.29;48.00;99141.66;6217020;23;20000;-82
2021/04/23 01:44:22;;;;;;;3.53;3.20;;;;;;;14.25;48.01;99146.06;6242378;23;20010;-84
2021/04/23 01:46:48;;;;;;;4.03;2.60;;;;;;;14.19;47.92;99142.66;6216888;23;20007;-86
2021/04/23 01:49:16;;;;;;;5.68;2.35;;;;;;;14.18;48.27;99140.28;6217364;23;20004;-85
2021/04/23 01:51:46;;;;;;;3.55;2.45;;;;;;;14.16;47.96;99140.59;6216998;23;20418;-87
2021/04/23 01:54:12;;;;;;;3.95;2.35;;;;;;;14.15;48.45;99136.28;6217048;23;20005;-88
2021/04/23 01:56:38;;;;;;;3.40;2.67;;;;;;;14.14;48.19;99140.06;6242231;23;20004;-89
2021/04/23 01:59:05;;;;;;;5.10;2.28;;;;;;;14.07;48.31;99131.59;6242353;23;20049;-88
2021/04/23 02:01:32;;;;;;;2.95;1.90;;;;;;;14.06;48.48;99140.75;6242393;23;20032;-83
2021/04/23 02:03:57;;;;;;;4.57;2.35;;;;;;;14.02;48.31;99140.53;6242101;23;20004;-88
2021/04/23 02:06:23;;;;;;;2.15;1.95;;;;;;;14.00;48.48;99141.94;6243268;23;20088;-86
2021/04/23 02:08:51;;;;;;;2.88;2.15;;;;;;;13.98;48.50;99144.94;6241975;23;20412;-83
2021/04/23 02:11:18;;;;;;;3.30;2.20;;;;;;;13.95;48.64;99142.81;6217163;23;20099;-85
2021/04/23 02:13:46;;;;;;;2.13;1.90;;;;;;;13.95;49.40;99144.72;6241984;23;20000;-83
2021/04/23 02:16:14;;;;;;;2.47;2.10;;;;;;;13.92;49.43;99146.91;6216877;23;20091;-82
2021/04/23 02:18:41;;;;;;;2.97;2.30;;;;;;;13.91;49.86;99153.41;6243735;23;20007;-88
2021/04/23 02:21:09;;;;;;;2.28;2.10;;;;;;;13.87;50.24;99140.84;6242786;23;20337;-87
2021/04/23 02:23:35;;;;;;;5.00;2.40;;;;;;;13.80;49.79;99151.16;6241875;23;20015;-84
2021/04/23 02:26:00;;;;;;;3.58;2.35;;;;;;;13.74;49.88;99143.19;6216483;23;20417;-84
2021/04/23 02:28:26;;;;;;;2.72;2.03;;;;;;;13.74;50.83;99148.56;6230625;23;20035;-93
2021/04/23 02:30:57;;;;;;;3.63;1.88;;;;;;;13.68;50.64;99143.56;6218835;23;20073;-87
2021/04/23 02:33:23;;;;;;;2.50;1.83;;;;;;;13.64;50.83;99153.31;6216356;23;19992;-81
2021/04/23 02:35:50;;;;;;;3.25;2.25;;;;;;;13.59;51.43;99143.44;6216294;23;19996;-84
2021/04/23 02:38:16;;;;;;;2.35;2.15;;;;;;;13.54;52.00;99146.22;6216721;23;20143;-88
2021/04/23 02:40:43;;;;;;;3.67;2.10;;;;;;;13.47;52.50;99143.09;6217127;23;20011;-93
2021/04/23 02:43:22;;;;;;;7.88;3.03;;;;;;;13.44;52.58;99150.63;6243592;23;20086;-92
2021/04/23 02:45:49;;;;;;;2.65;2.28;;;;;;;13.42;52.52;99150.13;6244198;23;19996;-87
2021/04/23 02:48:17;;;;;;;4.05;2.20;;;;;;;13.40;52.57;99143.44;6242323;23;19996;-87
2021/04/23 02:50:56;;;;;;;4.72;2.17;;;;;;;13.42;52.57;99147.44;6218193;23;20004;-87
2021/04/23 02:53:21;;;;;;;3.05;2.13;;;;;;;13.44;52.13;99152.53;6225406;23;20000;-87
2021/04/23 02:55:47;;;;;;;3.13;1.90;;;;;;;13.47;51.33;99156.53;6225250;23;19996;-86
2021/04/23 02:58:15;;;;;;;4.22;2.80;;;;;;;13.50;51.63;99154.06;6222725;23;20026;-86
2021/04/23 03:00:45;;;;;;;2.15;1.95;;;;;;;13.55;51.62;99159.34;6217542;23;20004;-89
2021/04/23 03:03:11;;;;;;;3.95;2.88;;;;;;;13.56;52.13;99166.31;6219346;23;20004;-93
2021/04/23 03:05:39;;;;;;;4.43;2.63;;;;;;;13.63;52.12;99175.91;6253022;23;20004;-92
2021/04/23 03:08:06;;;;;;;5.00;2.60;;;;;;;13.63;51.92;99163.25;6242842;23;20004;-90
2021/04/23 03:10:36;;;;;;;2.38;1.90;;;;;;;13.63;52.01;99159.78;6247310;23;20004;-90
2021/04/23 03:13:08;;;;;;;2.42;2.15;;;;;;;13.57;51.43;99146.44;6221910;23;20008;-87
2021/04/23 03:15:34;;;;;;;4.47;3.08;;;;;;;13.60;51.55;99148.50;6221003;23;20090;-84
2021/04/23 03:18:00;;;;;;;3.22;2.63;;;;;;;13.58;51.38;99156.06;6219139;23;20476;-85
2021/04/23 03:20:26;;;;;;;3.22;2.92;;;;;;;13.60;50.89;99169.22;6217585;23;20031;-85
2021/04/23 03:22:52;;;;;;;4.82;3.47;;;;;;;13.62;50.78;99172.38;6216445;23;20008;-87
2021/04/23 03:25:18;;;;;;;3.33;2.75;;;;;;;13.65;50.82;99171.03;6242520;23;20000;-86
2021/04/23 03:27:43;;;;;;;5.30;3.38;;;;;;;13.66;51.42;99175.28;6241945;23;20011;-86
2021/04/23 03:30:19;;;;;;;4.32;3.47;;;;;;;13.70;50.89;99173.63;6241448;23;20008;-82
2021/04/23 03:32:45;;;;;;;20.65;8.80;;;;;;;13.73;52.34;99187.28;6216307;23;20000;-82
2021/04/23 03:35:11;;;;;;;17.30;8.27;;;;;;;13.75;52.87;99190.47;6218588;23;20011;-90
2021/04/23 03:37:37;;;;;;;16.15;7.55;;;;;;;13.75;53.26;99198.53;6243950;23;19999;-85
2021/04/23 03:40:05;;;;;;;19.92;9.20;;;;;;;13.77;54.35;99200.94;6218280;23;20070;-83
2021/04/23 03:42:31;;;;;;;12.32;6.22;;;;;;;13.73;54.97;99189.16;6243592;23;20039;-82
2021/04/23 03:44:57;;;;;;;7.80;4.78;;;;;;;13.73;55.05;99195.34;6242838;23;20011;-87
2021/04/23 03:47:22;;;;;;;7.50;4.13;;;;;;;13.67;55.30;99193.03;6217685;23;20004;-85
2021/04/23 03:49:49;;;;;;;6.05;3.33;;;;;;;13.64;55.77;99193.63;6218163;23;20004;-83
2021/04/23 03:52:15;;;;;;;4.78;3.25;;;;;;;13.62;56.23;99201.94;6218326;23;19996;-84
2021/04/23 03:54:41;;;;;;;3.13;2.78;;;;;;;13.59;56.10;99206.03;6243679;23;20004;-85
2021/04/23 03:57:06;;;;;;;5.55;3.28;;;;;;;13.58;55.67;99212.47;6217476;23;20716;-83
2021/04/23 03:59:32;;;;;;;5.40;3.85;;;;;;;13.57;56.04;99216.28;6218147;23;20004;-83
2021/04/23 04:01:58;;;;;;;6.10;3.47;;;;;;;13.56;56.06;99213.88;6217818;23;19996;-86
2021/04/23 04:04:24;;;;;;;3.50;3.17;;;;;;;13.54;55.80;99230.28;6218969;23;20066;-88
2021/04/23 04:06:49;;;;;;;5.65;3.50;;;;;;;13.50;56.11;99237.34;6217620;23;20008;-82
2021/04/23 04:09:16;;;;;;;5.85;3.75;;;;;;;13.48;55.96;99242.19;6217736;23;19996;-86
2021/04/23 04:11:42;;;;;;;5.35;3.72;;;;;;;13.45;56.45;99248.97;6243049;23;20003;-85
2021/04/23 04:14:07;;;;;;;5.93;2.85;;;;;;;13.44;56.37;99249.25;6217101;23;20010;-84
2021/04/23 04:16:33;;;;;;;3.22;2.92;;;;;;;13.40;56.54;99232.91;6243024;23;20004;-88
2021/04/23 04:18:59;;;;;;;4.03;3.05;;;;;;;13.36;56.65;99223.00;6217710;23;20038;-88
2021/04/23 04:21:24;;;;;;;3.53;3.22;;;;;;;13.29;56.89;99226.03;6242172;23;20501;-83
2021/04/23 04:23:50;;;;;;;6.78;2.97;;;;;;;13.25;57.27;99220.44;6217862;23;20015;-82
2021/04/23 04:26:15;;;;;;;4.75;3.15;;;;;;;13.22;57.03;99222.91;6243491;23;19996;-83
2021/04/23 04:28:41;;;;;;;6.97;3.17;;;;;;;13.21;57.52;99226.69;6217014;23;20475;-80
2021/04/23 04:31:07;;;;;;;5.00;3.25;;;;;;;13.22;57.34;99228.28;6217090;23;20068;-81
2021/04/23 04:33:32;;;;;;;4.57;3.10;;;;;;;13.23;57.74;99236.06;6217175;23;20376;-81
2021/04/23 04:35:58;;;;;;;5.70;3.78;;;;;;;13.23;57.12;99244.13;6217337;23;20091;-81
2021/04/23 04:38:24;;;;;;;3.42;3.08;;;;;;;13.24;57.00;99251.09;6217563;23;20036;-81
2021/04/23 04:40:50;;;;;;;5.38;3.72;;;;;;;13.28;57.25;99243.22;6217446;23;20422;-81
2021/04/23 04:43:18;;;;;;;5.88;3.00;;;;;;;13.29;57.12;99242.97;6217629;23;20095;-81
2021/04/23 04:45:46;;;;;;;3.70;3.33;;;;;;;13.33;56.77;99245.06;6242735;23;20000;-81
2021/04/23 04:48:12;;;;;;;3.63;2.63;;;;;;;13.35;57.02;99248.25;6217216;23;20004;-81
2021/04/23 04:50:43;;;;;;;8.93;3.10;;;;;;;13.38;56.69;99255.78;6217548;23;20004;-81
2021/04/23 04:53:10;;;;;;;3.05;2.60;;;;;;;13.38;56.84;99250.41;6217285;23;19996;-81
2021/04/23 04:55:40;;;;;;;5.45;3.08;;;;;;;13.45;56.06;99237.41;6242724;23;20000;-80
2021/04/23 04:58:08;;;;;;;4.15;2.58;;;;;;;13.50;56.05;99250.78;6216885;23;20035;-81
2021/04/23 05:00:34;;;;;;;2.88;2.65;;;;;;;13.54;55.93;99264.44;6242941;23;20007;-80
2021/04/23 05:03:01;;;;;;;3.78;3.38;;;;;;;13.58;55.65;99260.84;6217349;23;20091;-81
2021/04/23 05:05:28;;;;;;;3.25;2.95;;;;;;;13.61;55.53;99256.81;6242956;23;20023;-81
2021/04/23 05:07:54;;;;;;;6.13;4.63;;;;;;;13.68;56.07;99253.75;6217261;23;20000;-81
2021/04/23 05:10:21;;;;;;;7.93;3.63;;;;;;;13.70;55.62;99238.91;6217478;23;20011;-81
2021/04/23 05:12:46;;;;;;;5.93;2.90;;;;;;;13.77;55.19;99242.03;6242773;23;20086;-81
2021/04/23 05:15:13;;;;;;;6.68;4.20;;;;;;;13.79;55.06;99246.34;6217345;23;20036;-81
2021/04/23 05:17:39;;;;;;;8.88;5.07;;;;;;;13.82;55.44;99256.47;6217522;23;20000;-81
2021/04/23 05:20:06;;;;;;;10.13;6.18;;;;;;;13.84;56.52;99257.81;6217241;23;20065;-81
2021/04/23 05:22:33;;;;;;;8.93;5.75;;;;;;;13.86;56.71;99255.63;6242812;23;19996;-81
2021/04/23 05:24:59;;;;;;;7.53;5.18;;;;;;;13.87;57.00;99254.53;6217550;23;20053;-81
2021/04/23 05:27:24;;;;;;;6.57;4.55;;;;;;;13.88;56.91;99256.13;6242616;23;20378;-81
2021/04/23 05:29:49;;;;;;;8.75;5.15;;;;;;;13.90;56.95;99267.41;6217501;23;20012;-81
2021/04/23 05:32:15;;;;;;;8.57;5.55;;;;;;;13.92;57.20;99261.72;6242149;23;20404;-80
2021/04/23 05:34:40;;;;;;;11.15;6.50;;;;;;;13.93;57.57;99263.31;6217359;23;20007;-80
2021/04/23 05:37:10;;;;;;;11.52;6.65;;;;;;;13.95;57.87;99265.72;6217575;23;19996;-81
2021/04/23 05:39:37;;;;;;;11.50;7.38;;;;;;;13.96;57.63;99260.03;6217347;23;20380;-80
2021/04/23 05:42:03;;;;;;;11.90;5.63;;;;;;;13.99;58.08;99256.78;6242298;23;19999;-81
2021/04/23 05:44:29;;;;;;;11.00;5.70;;;;;;;13.97;58.09;99253.56;6216877;23;20077;-80
2021/04/23 05:46:54;;;;;;;11.63;5.95;;;;;;;14.02;58.02;99250.00;6216942;23;20350;-80
2021/04/23 05:49:20;;;;;;;10.32;5.93;;;;;;;14.04;58.43;99258.59;6217089;23;20004;-81
2021/04/23 05:51:45;;;;;;;8.70;5.45;;;;;;;14.09;58.40;99251.22;6217045;23;20004;-82
2021/04/23 05:54:10;;;;;;;8.13;5.40;;;;;;;14.14;58.25;99261.09;6216820;23;20000;-81
2021/04/23 05:56:36;;;;;;;10.77;6.65;;;;;;;14.18;58.65;99269.38;6216350;23;20050;-82
2021/04/23 05:59:02;;;;;;;10.45;6.15;;;;;;;14.20;59.00;99284.13;6216646;23;20008;-81
2021/04/23 06:01:27;;;;;;;9.07;6.53;;;;;;;14.24;59.06;99284.34;6242390;23;20008;-82
2021/04/23 06:03:53;;;;;;;6.57;4.55;;;;;;;14.30;59.09;99277.00;6217051;23;20007;-81
2021/04/23 06:06:18;;;;;;;7.40;5.68;;;;;;;14.34;59.18;99281.50;6216590;23;20380;-81
2021/04/23 06:08:44;;;;;;;8.15;5.03;;;;;;;14.43;59.11;99289.69;6216971;23;20000;-80
2021/04/23 06:11:16;;;;;;;7.45;5.50;;;;;;;14.49;59.21;99283.13;6241996;23;20073;-80
2021/04/23 06:13:41;;;;;;;9.23;5.43;;;;;;;14.54;58.77;99288.41;6216821;23;20007;-80
2021/04/23 06:16:07;;;;;;;6.88;4.90;;;;;;;14.61;58.57;99290.72;6216766;23;20008;-80
2021/04/23 06:18:33;;;;;;;6.07;3.97;;;;;;;14.61;57.84;99293.41;6242223;23;20388;-80
2021/04/23 06:20:58;;;;;;;6.30;3.60;;;;;;;14.64;56.94;99294.72;6216588;23;20332;-81
2021/04/23 06:23:24;;;;;;;6.85;2.88;;;;;;;14.70;56.50;99309.69;6216908;23;20391;-80
2021/04/23 06:25:50;;;;;;;4.63;2.95;;;;;;;14.70;55.50;99302.41;6216744;23;20000;-80
2021/04/23 06:28:16;;;;;;;3.95;2.97;;;;;;;14.76;55.94;99316.59;6241527;23;20008;-81
2021/04/23 06:30:41;;;;;;;2.50;2.05;;;;;;;14.84;55.57;99317.78;6216799;23;20003;-81
2021/04/23 06:33:17;;;;;;;2.60;2.40;;;;;;;14.90;55.28;99319.28;6216179;23;20007;-82
2021/04/23 06:35:43;;;;;;;2.80;2.40;;;;;;;14.95;55.41;99319.22;6216537;23;20061;-82
2021/04/23 06:38:09;;;;;;;5.05;3.00;;;;;;;15.01;55.28;99330.66;6241741;23;20489;-82
2021/04/23 06:40:35;;;;;;;5.22;2.13;;;;;;;15.09;55.08;99329.16;6216812;23;20046;-81
2021/04/23 06:43:01;;;;;;;4.35;2.85;;;;;;;15.13;54.60;99330.19;6241725;23;20376;-82
2021/04/23 06:45:27;;;;;;;4.63;3.40;;;;;;;15.18;54.61;99322.81;6216556;23;20011;-81
2021/04/23 06:47:52;;;;;;;4.85;2.45;;;;;;;15.17;53.97;99323.91;6216788;23;20083;-81
2021/04/23 06:50:20;;;;;;;3.45;2.80;;;;;;;15.17;54.05;99321.22;6216452;23;20414;-82
2021/04/23 06:52:46;;;;;;;5.15;3.08;;;;;;;15.20;54.17;99328.69;6241957;23;20065;-82
2021/04/23 06:55:14;;;;;;;4.13;3.03;;;;;;;15.25;54.40;99329.69;6216347;23;20099;-82
2021/04/23 06:57:39;;;;;;;3.47;2.63;;;;;;;15.29;54.16;99323.38;6216261;23;20388;-82
2021/04/23 07:00:09;;;;;;;3.67;3.05;;;;;;;15.31;54.00;99331.19;6216296;23;20011;-82
2021/04/23 07:02:34;;;;;;;5.40;2.38;;;;;;;15.34;53.90;99333.25;6241665;23;20091;-82
2021/04/23 07:05:00;;;;;;;2.90;1.92;;;;;;;15.37;54.41;99328.06;6241589;23;20374;-82
2021/04/23 07:07:26;;;;;;;3.85;2.63;;;;;;;15.40;53.95;99332.06;6216647;23;20008;-82
2021/04/23 07:09:51;;;;;;;3.67;2.70;;;;;;;15.42;54.07;99337.94;6241680;23;19996;-82
2021/04/23 07:12:17;;;;;;;3.15;2.38;;;;;;;15.49;54.20;99338.34;6216185;23;20007;-82
2021/04/23 07:14:42;;;;;;;2.90;1.98;;;;;;;15.56;54.31;99337.13;6216323;23;20031;-82
2021/04/23 07:17:10;;;;;;;3.92;2.10;;;;;;;15.62;54.05;99338.63;6216228;23;20027;-82
2021/04/23 07:19:38;;;;;;;4.20;2.30;;;;;;;15.70;54.29;99340.63;6216401;23;20000;-81
2021/04/23 07:22:04;;;;;;;2.10;1.88;;;;;;;15.80;54.13;99345.00;6216078;23;20075;-81
2021/04/23 07:24:30;;;;;;;3.55;1.85;;;;;;;15.83;53.76;99349.78;6216442;23;20330;-82
2021/04/23 07:26:56;;;;;;;2.20;1.98;;;;;;;15.90;53.96;99344.00;6216635;23;20000;-81
2021/04/23 07:29:22;;;;;;;2.40;1.95;;;;;;;15.98;54.03;99346.75;6216166;23;20003;-82
2021/04/23 07:31:47;;;;;;;2.40;2.25;;;;;;;16.05;53.65;99351.75;6216616;23;20440;-80
2021/04/23 07:34:13;;;;;;;1.92;1.63;;;;;;;16.12;53.49;99352.09;6216127;23;20000;-80
2021/04/23 07:36:38;;;;;;;3.15;2.50;;;;;;;16.19;53.17;99353.59;6241608;23;20004;-81
2021/04/23 07:39:04;;;;;;;2.30;2.10;;;;;;;16.21;52.62;99352.19;6241526;23;20011;-80
2021/04/23 07:41:30;;;;;;;4.68;3.20;;;;;;;16.27;52.61;99350.97;6216356;23;20004;-80
2021/04/23 07:43:56;;;;;;;2.90;2.28;;;;;;;16.33;52.70;99349.75;6216290;23;20007;-82
2021/04/23 07:46:21;;;;;;;3.15;2.10;;;;;;;16.41;52.69;99342.00;6216099;23;20003;-81
2021/04/23 07:48:47;;;;;;;2.47;1.98;;;;;;;16.47;52.80;99344.25;6241732;23;20000;-81
2021/04/23 07:51:12;;;;;;;2.67;2.15;;;;;;;16.54;52.10;99341.13;6241326;23;20000;-81
2021/04/23 07:53:39;;;;;;;3.25;1.42;;;;;;;16.61;52.23;99349.59;6216354;23;20032;-80
2021/04/23 07:56:04;;;;;;;1.83;1.70;;;;;;;16.71;52.26;99350.44;6216010;23;20075;-81
2021/04/23 07:58:30;;;;;;;2.03;1.80;;;;;;;16.79;51.99;99353.19;6241073;23;20046;-80
2021/04/23 08:00:55;;;;;;;2.88;2.10;;;;;;;16.86;51.30;99352.75;6216435;23;20000;-80
2021/04/23 08:03:21;;;;;;;1.95;1.85;;;;;;;16.91;51.02;99346.41;6241248;23;20012;-81
2021/04/23 08:05:47;;;;;;;2.53;2.28;;;;;;;16.98;50.46;99352.19;6215918;23;19996;-81
2021/04/23 08:08:12;;;;;;;4.10;2.92;;;;;;;17.08;50.94;99348.44;6215833;23;19996;-81
2021/04/23 08:10:38;;;;;;;2.97;1.92;;;;;;;17.21;50.54;99341.31;6241217;23;20042;-81
2021/04/23 08:13:04;;;;;;;3.05;2.13;;;;;;;17.34;50.47;99355.84;6215857;23;20010;-80
2021/04/23 08:15:30;;;;;;;2.05;1.85;;;;;;;17.47;49.30;99346.00;6241494;23;20011;-82
2021/04/23 08:17:58;;;;;;;2.58;2.08;;;;;;;17.57;49.20;99349.19;6216208;23;20008;-80
2021/04/23 08:20:24;;;;;;;5.80;2.47;;;;;;;17.70;49.64;99336.66;6241654;23;20000;-80
2021/04/23 08:22:50;;;;;;;2.58;2.03;;;;;;;17.81;47.81;99342.56;6243367;23;20010;-82
2021/04/23 08:25:19;;;;;;;3.10;2.65;;;;;;;17.86;47.72;99342.41;6217676;23;20031;-82
2021/04/23 08:27:46;;;;;;;4.65;1.75;;;;;;;17.92;47.53;99345.75;6242781;23;20003;-81
2021/04/23 08:30:13;;;;;;;1.95;1.73;;;;;;;17.98;47.06;99343.72;6243015;23;20003;-81
2021/04/23 08:32:39;;;;;;;2.88;1.92;;;;;;;18.01;47.50;99343.88;6217792;23;20003;-82
2021/04/23 08:35:08;;;;;;;4.57;1.77;;;;;;;18.00;47.17;99344.97;6217532;23;20004;-80
2021/04/23 08:37:35;;;;;;;2.85;1.90;;;;;;;18.02;47.36;99356.28;6217820;23;20429;-82
2021/04/23 08:40:00;;;;;;;3.10;2.03;;;;;;;18.01;47.76;99348.50;6218083;23;19999;-82
2021/04/23 08:42:28;;;;;;;1.95;1.67;;;;;;;18.05;47.92;99352.97;6218170;23;20007;-81
2021/04/23 08:44:53;;;;;;;1.47;1.37;;;;;;;18.11;47.06;99344.66;6218320;23;20057;-80
2021/04/23 08:47:19;;;;;;;1.23;1.05;;;;;;;18.17;46.34;99341.47;6217682;23;20231;-82
2021/04/23 08:49:45;;;;;;;3.50;0.82;;;;;;;18.28;45.00;99338.44;6218121;23;20066;-80
2021/04/23 08:52:11;;;;;;;2.63;0.88;;;;;;;18.38;45.43;99338.91;6242492;23;20015;-80
2021/04/23 08:54:37;;;;;;;1.20;0.90;;;;;;;18.47;45.35;99333.47;6243153;23;20057;-80
2021/04/23 08:57:03;;;;;;;1.17;1.08;;;;;;;18.55;44.96;99340.81;6217742;23;20087;-81
2021/04/23 08:59:28;;;;;;;1.30;1.05;;;;;;;18.63;44.58;99335.69;6243068;23;20053;-81
2021/04/23 09:01:54;;;;;;;1.17;1.08;;;;;;;18.67;44.46;99328.50;6218160;23;20032;-81
2021/04/23 09:04:19;;;;;;;1.70;1.02;;;;;;;18.70;44.19;99328.66;6243078;23;20012;-81
2021/04/23 09:07:00;;;;;;;1.15;0.90;;;;;;;18.69;44.40;99329.75;6218034;23;20008;-81
2021/04/23 09:09:33;;;;;;;1.08;0.85;;;;;;;18.63;43.22;99330.28;6217706;23;20004;-81
2021/04/23 09:11:59;;;;;;;1.95;1.40;;;;;;;18.62;43.86;99336.81;6243004;23;20384;-81
2021/04/23 09:14:25;;;;;;;2.95;1.02;;;;;;;18.60;44.12;99337.09;6217476;23;20016;-80
2021/04/23 09:16:56;;;;;;;1.48;0.75;;;;;;;18.57;43.22;99332.34;6242846;23;20314;-81
2021/04/23 09:19:30;;;;;;;1.25;1.15;;;;;;;18.51;43.27;99322.81;6242611;23;20038;-81
2021/04/23 09:21:58;;;;;;;3.95;1.13;;;;;;;18.52;43.54;99327.09;6217532;23;20062;-81
2021/04/23 09:24:32;;;;;;;1.67;1.27;;;;;;;18.50;43.50;99321.22;6217316;23;20035;-81
2021/04/23 09:27:07;;;;;;;1.15;0.90;;;;;;;18.50;43.63;99319.28;6242602;23;20082;-81
2021/04/23 09:29:34;;;;;;;1.10;1.00;;;;;;;18.55;44.23;99313.72;6217616;23;20361;-81
2021/04/23 09:32:12;;;;;;;3.15;0.88;;;;;;;18.63;43.92;99305.91;6242682;23;20012;-81
2021/04/23 09:34:53;;;;;;;1.75;0.70;;;;;;;18.67;43.45;99304.13;6217525;23;20007;-81
2021/04/23 09:37:20;;;;;;;0.90;0.90;;;;;;;18.73;43.67;99302.81;6217082;23;20004;-81
2021/04/23 09:39:47;;;;;;;0.90;0.80;;;;;;;18.75;43.21;99297.88;6217498;23;20023;-80
2021/04/23 09:42:15;;;;;;;1.20;1.10;;;;;;;18.82;43.62;99295.47;6217066;23;20675;-80
2021/04/23 09:44:45;;;;;;;2.47;1.13;;;;;;;18.87;42.82;99292.56;6217346;23;20126;-80
2021/04/23 09:47:17;;;;;;;0.80;0.80;;;;;;;18.93;42.32;99287.00;6242380;23;20008;-80
2021/04/23 09:49:50;;;;;;;0.80;0.80;;;;;;;18.94;41.25;99286.66;6217329;23;20088;-79
2021/04/23 09:52:16;;;;;;;0.65;0.65;;;;;;;18.93;41.59;99278.88;6216955;23;20023;-80
2021/04/23 09:54:50;;;;;;;0.75;0.70;;;;;;;18.95;41.78;99292.88;6216729;23;20000;-79
2021/04/23 09:57:20;;;;;;;1.42;1.30;;;;;;;18.98;41.58;99297.66;6216523;23;20345;-81
2021/04/23 09:59:54;;;;;;;0.98;0.85;;;;;;;19.01;41.98;99280.75;6242131;23;20014;-81
2021/04/23 10:02:21;;;;;;;0.85;0.85;;;;;;;19.02;41.65;99280.41;6216758;23;20217;-81
2021/04/23 10:04:47;;;;;;;0.75;0.75;;;;;;;19.08;41.25;99285.63;6242471;23;20000;-81
2021/04/23 10:07:24;;;;;;;0.85;0.77;;;;;;;19.12;41.99;99284.66;6216738;23;20337;-81
2021/04/23 10:10:10;;;;;;;1.63;0.90;;;;;;;19.22;42.19;99285.41;6242419;23;20004;-81
2021/04/23 10:12:49;;;;;;;1.80;0.75;;;;;;;19.31;41.55;99275.31;6216833;23;20023;-80
2021/04/23 10:15:17;;;;;;;1.65;0.70;;;;;;;19.40;42.08;99278.75;6216426;23;20004;-82
2021/04/23 10:17:45;;;;;;;0.75;0.75;;;;;;;19.48;42.29;99277.91;6216868;23;20004;-81
2021/04/23 10:20:12;;;;;;;;;;;;;;;19.58;42.32;99284.88;6217237;23;20073;-82
2021/04/23 10:22:38;;;;;;;1.20;1.02;;;;;;;19.63;42.09;99276.53;6242124;23;20228;-82
2021/04/23 10:25:05;;;;;;;1.00;1.00;;;;;;;19.71;41.62;99290.34;6216773;23;20439;-81
2021/04/23 10:27:33;;;;;;;1.42;0.75;;;;;;;19.71;40.82;99295.78;6216309;23;20007;-81
2021/04/23 10:30:04;;;;;;;0.77;0.77;;;;;;;19.77;40.98;99289.81;6216803;23;20062;-81
2021/04/23 10:32:29;;;;;;;0.93;0.93;;;;;;;19.83;40.95;99283.13;6216006;23;20662;-81
2021/04/23 10:34:57;;;;;;;0.82;0.77;;;;;;;19.86;40.42;99286.25;6216745;23;20307;-81
2021/04/23 10:37:23;;;;;;;1.05;0.85;;;;;;;19.83;40.32;99291.25;6216568;23;20007;-80
2021/04/23 10:39:49;;;;;;;1.90;1.25;;;;;;;19.80;40.08;99282.94;6216694;23;20000;-80
2021/04/23 10:42:42;;;;;;;1.30;1.20;;;;;;;19.77;40.71;99287.09;6216387;23;20334;-79
2021/04/23 10:45:21;;;;;;;0.90;0.60;;;;;;;19.78;40.49;99291.41;6243766;23;19992;-80
2021/04/23 10:47:49;;;;;;;0.90;0.90;;;;;;;19.79;40.97;99284.84;6216674;23;20376;-81
2021/04/23 10:50:18;;;;;;;0.60;0.52;;;;;;;19.80;41.01;99272.09;6241928;23;20433;-82
2021/04/23 10:53:13;;;;;;;1.08;1.05;;;;;;;19.78;41.14;99285.97;6241995;23;20397;-81
2021/04/23 10:55:42;;;;;;;0.80;0.80;;;;;;;19.83;40.91;99269.53;6216735;23;20000;-81
2021/04/23 10:58:10;;;;;;;3.42;1.08;;;;;;;19.84;40.63;99268.38;6241707;23;20009;-81
2021/04/23 11:00:39;;;;;;;0.57;0.50;;;;;;;19.87;39.92;99269.66;6216162;23;20000;-80
2021/04/23 11:03:24;;;;;;;0.73;0.73;;;;;;;19.87;39.20;99277.00;6241779;23;20087;-81
2021/04/23 11:05:56;;;;;;;0.90;0.90;;;;;;;19.85;39.09;99271.91;6216637;23;20204;-80
2021/04/23 11:08:24;;;;;;;1.70;0.82;;;;;;;19.82;39.62;99270.63;6216160;23;20325;-80
2021/04/23 11:11:02;;;;;;;1.00;1.00;;;;;;;19.85;39.72;99277.34;6216637;23;20004;-80
2021/04/23 11:13:35;;;;;;;0.65;0.65;;;;;;;19.86;40.32;99278.94;6241573;23;20372;-80
2021/04/23 11:16:25;;;;;;;2.05;0.80;;;;;;;19.88;40.18;99284.03;6216413;23;20004;-80
2021/04/23 11:18:53;;;;;;;1.00;0.75;;;;;;;19.93;40.77;99272.97;6243352;23;20004;-79
2021/04/23 11:21:29;;;;;;;;;;;;;;;20.00;40.48;99274.00;6242092;23;20334;-80
2021/04/23 11:24:20;;;;;;;1.63;1.20;;;;;;;20.04;40.58;99278.78;6241711;23;19906;-80
2021/04/23 11:26:52;;;;;;;0.80;0.80;;;;;;;20.05;40.28;99285.78;6216309;23;19996;-80
2021/04/23 11:29:22;;;;;;;0.80;0.80;;;;;;;20.09;40.14;99286.69;6241291;23;20325;-80
2021/04/23 11:32:10;;;;;;;0.85;0.85;;;;;;;20.10;39.96;99280.16;6216333;23;20390;-80
2021/04/23 11:34:42;;;;;;;1.25;0.85;;;;;;;20.17;39.79;99280.41;6216247;23;20062;-80
2021/04/23 11:37:20;;;;;;;1.17;1.08;;;;;;;20.20;39.38;99276.22;6241731;23;20000;-80